< Cyclone 197302 1973 Season Cyclone 197305 >
Cyclone 197303 (KERRY)
General InformationTrack Information on Google Maps || ResourceGoogle EarthGE AnimationAtom FeedGeoJSON
Detalied Best Track (Time Zone = UTC)
Year Month Day Hour Lat. Long. Pressure (hPa) Wind (kt) Class Image Chart
1973 1 19 01 -14.6 120.0 1007 0 0 -- --
1973 1 19 04 -14.0 119.7 1004 0 0 -- --
1973 1 19 07 -14.7 119.5 1002 0 0 -- --
1973 1 19 10 -14.7 119.3 1001 0 0 -- --
1973 1 19 13 -14.8 119.5 1001 0 0 -- --
1973 1 19 16 -14.9 119.0 1001 0 0 -- --
1973 1 19 19 -15.1 118.7 1001 0 0 -- --
1973 1 19 22 -15.4 118.5 1000 0 0 -- --
1973 1 20 01 -15.8 118.3 999 0 0 -- --
1973 1 20 04 -16.1 118.2 998 0 0 -- --
1973 1 20 07 -16.5 118.1 996 0 0 -- --
1973 1 20 10 -16.8 118.0 994 0 0 -- --
1973 1 20 13 -17.1 117.9 992 0 0 -- --
1973 1 20 16 -17.4 117.8 990 0 0 -- --
1973 1 20 19 -17.7 117.5 988 0 0 -- --
1973 1 20 22 -17.9 117.3 986 0 0 -- --
1973 1 21 01 -18.1 117.2 984 0 0 -- --
1973 1 21 04 -18.0 117.0 980 0 0 -- --
1973 1 21 07 -18.7 116.8 975 0 0 -- --
1973 1 21 10 -19.1 116.7 970 0 0 -- --
1973 1 21 13 -19.4 116.9 960 0 0 -- --
1973 1 21 16 -19.9 117.2 960 0 0 -- --
1973 1 21 19 -20.3 117.4 960 0 0 -- --
1973 1 21 22 -20.7 117.6 962 0 0 -- --
1973 1 22 01 -21.0 117.8 965 0 0 -- --
1973 1 22 04 -21.4 118.0 970 0 0 -- --
1973 1 22 07 -21.8 118.2 970 0 0 -- --
1973 1 22 10 -22.2 118.4 970 0 0 -- --
1973 1 22 13 -22.5 118.6 972 0 0 -- --
1973 1 22 16 -22.9 118.9 975 0 0 -- --
1973 1 22 19 -23.1 119.0 977 0 0 -- --
1973 1 22 22 -23.4 119.3 980 0 0 -- --
1973 1 23 01 -23.7 119.6 985 0 0 -- --
1973 1 23 04 -24.1 120.0 985 0 0 -- --
1973 1 23 07 -24.4 120.3 987 0 0 -- --
1973 1 23 10 -24.7 120.5 990 0 0 -- --
1973 1 23 13 -24.9 120.5 991 0 0 -- --
1973 1 23 16 -25.2 120.6 993 0 0 -- --
1973 1 23 19 -25.6 120.5 993 0 0 -- --
1973 1 23 22 -25.9 120.4 993 0 0 -- --
1973 1 24 01 -26.2 120.4 996 0 0 -- --
1973 1 24 04 -26.5 120.4 996 0 0 -- --
< Cyclone 197302 1973 Season Cyclone 197305 >

Help